< < Back
Terminal Aerodrome Forecast


Current Version              Previous Versions:   1  2  3  4  5  6  7  8  9  

Terminal Aerodrome Forecast

476
FTUS42 KFFC 300523
TAFPDK
TAF
KPDK 300523Z 3006/3106 22005KT P6SM SCT025 OVC035
      TEMPO 3006/3009 32012G20KT P6SM BKN025
     FM300900 32013G22KT P6SM OVC020
     FM301200 32014KT P6SM SCT040
     FM301500 32014G24KT P6SM SCT150
     FM310000 33004KT P6SM SKC=



Latest METAR

402
SAUS70 KWBC 300900 RRI
MTRPDK
METAR KPDK 300853Z AUTO 32019G24KT 10SM OVC029 05/M01 A3017 RMK AO2 PK
WND 30026/0829 SLP222 T00501011 51025


USA.gov is the U.S. government's official web portal to all federal, state and local government web resources and services.